createdAt,value
2018-06-04T00:00:23.325Z,18.79
2018-06-04T00:01:23.310Z,18.76
2018-06-04T00:02:23.297Z,18.76
2018-06-04T00:03:23.289Z,18.79
2018-06-04T00:04:23.270Z,18.79
2018-06-04T00:05:23.264Z,18.81
2018-06-04T00:06:56.454Z,18.78
2018-06-04T00:07:23.230Z,18.74
2018-06-04T00:08:23.217Z,18.76
2018-06-04T00:09:23.202Z,18.74
2018-06-04T00:10:23.191Z,18.74
2018-06-04T00:11:23.177Z,18.78
2018-06-04T00:12:23.171Z,18.76
2018-06-04T00:13:23.300Z,18.74
2018-06-04T00:14:23.136Z,18.74
2018-06-04T00:15:23.123Z,18.78
2018-06-04T00:16:23.110Z,18.73
2018-06-04T00:17:23.096Z,18.71
2018-06-04T00:18:23.084Z,18.68
2018-06-04T00:19:23.070Z,18.70
2018-06-04T00:20:23.056Z,18.71
2018-06-04T00:21:23.044Z,18.70
2018-06-04T00:22:23.032Z,18.73
2018-06-04T00:23:23.017Z,18.73
2018-06-04T00:24:23.003Z,18.78
2018-06-04T00:25:22.987Z,18.83
2018-06-04T00:26:22.974Z,18.79
2018-06-04T00:27:22.962Z,18.74
2018-06-04T00:28:22.955Z,18.70
2018-06-04T00:29:22.934Z,18.81
2018-06-04T00:30:22.920Z,18.76
2018-06-04T00:31:22.918Z,18.76
2018-06-04T00:32:22.941Z,18.73
2018-06-04T00:33:22.886Z,18.76
2018-06-04T00:34:22.867Z,18.76
2018-06-04T00:35:22.856Z,18.73
2018-06-04T00:36:22.841Z,18.76
2018-06-04T00:37:22.831Z,18.68
2018-06-04T00:38:22.811Z,18.71
2018-06-04T00:39:22.800Z,18.68
2018-06-04T00:40:22.799Z,18.70
2018-06-04T00:41:22.771Z,18.63
2018-06-04T00:42:22.757Z,18.61
2018-06-04T00:43:22.746Z,18.57
2018-06-04T00:44:22.731Z,18.58
2018-06-04T00:45:22.718Z,18.55
2018-06-04T00:46:22.703Z,18.51
2018-06-04T00:47:22.691Z,18.51
2018-06-04T00:48:22.678Z,18.55
2018-06-04T00:49:22.663Z,18.55
2018-06-04T00:50:22.699Z,18.48
2018-06-04T00:51:22.636Z,18.57
2018-06-04T00:52:22.631Z,18.57
2018-06-04T00:53:22.616Z,18.51
2018-06-04T00:54:22.597Z,18.51
2018-06-04T00:55:22.583Z,18.58
2018-06-04T00:56:22.570Z,18.48
2018-06-04T00:57:22.552Z,18.49
2018-06-04T00:58:22.541Z,18.58
2018-06-04T00:59:22.531Z,18.49
2018-06-04T01:00:22.514Z,18.42
2018-06-04T01:01:22.499Z,18.37
2018-06-04T01:02:22.485Z,18.42
2018-06-04T01:03:22.482Z,18.43
2018-06-04T01:04:22.461Z,18.42
2018-06-04T01:05:22.548Z,18.39
2018-06-04T01:06:22.433Z,18.41
2018-06-04T01:07:22.419Z,18.39
2018-06-04T01:08:22.406Z,18.26
2018-06-04T01:09:22.409Z,18.30
2018-06-04T01:10:22.377Z,18.23
2018-06-04T01:11:22.364Z,18.27
2018-06-04T01:12:22.352Z,18.30
2018-06-04T01:13:22.336Z,18.21
2018-06-04T01:14:22.323Z,18.28
2018-06-04T01:15:22.312Z,18.27
2018-06-04T01:16:22.298Z,18.23
2018-06-04T01:17:22.333Z,18.28
2018-06-04T01:18:22.272Z,18.21
2018-06-04T01:19:22.256Z,18.16
2018-06-04T01:20:22.241Z,18.13
2018-06-04T01:21:22.228Z,18.19
2018-06-04T01:22:22.215Z,18.19
2018-06-04T01:23:22.209Z,18.18
2018-06-04T01:24:22.185Z,18.24
2018-06-04T01:25:22.175Z,18.33
2018-06-04T01:26:22.158Z,18.23
2018-06-04T01:27:22.145Z,18.26
2018-06-04T01:28:22.132Z,18.24
2018-06-04T01:29:22.118Z,18.13
2018-06-04T01:30:22.113Z,18.24
2018-06-04T01:31:22.092Z,18.16
2018-06-04T01:32:22.078Z,18.09
2018-06-04T01:33:22.063Z,18.18
2018-06-04T01:34:22.048Z,18.21
2018-06-04T01:35:22.035Z,18.19
2018-06-04T01:36:22.022Z,18.12
2018-06-04T01:37:22.006Z,18.21
2018-06-04T01:38:21.998Z,18.24
2018-06-04T01:39:21.979Z,18.30
2018-06-04T01:40:21.966Z,18.23
2018-06-04T01:41:21.956Z,18.33
2018-06-04T01:42:21.942Z,18.23
2018-06-04T01:43:21.925Z,18.13
2018-06-04T01:44:21.912Z,18.23
2018-06-04T01:45:21.896Z,18.09
2018-06-04T01:46:21.891Z,18.16
2018-06-04T01:47:21.872Z,18.15
2018-06-04T01:48:21.860Z,18.09
2018-06-04T01:49:21.844Z,18.21
2018-06-04T01:50:21.828Z,18.21
2018-06-04T01:51:21.820Z,18.16
2018-06-04T01:52:21.803Z,18.09
2018-06-04T01:53:21.787Z,18.06
2018-06-04T01:54:21.772Z,18.09
2018-06-04T01:55:21.763Z,18.08
2018-06-04T01:56:21.747Z,18.13
2018-06-04T01:57:21.731Z,18.16
2018-06-04T01:58:21.719Z,18.15
2018-06-04T01:59:21.705Z,18.16
2018-06-04T02:00:21.693Z,18.18
2018-06-04T02:01:21.677Z,18.21
2018-06-04T02:02:21.663Z,18.16
2018-06-04T02:03:21.649Z,18.12
2018-06-04T02:04:21.638Z,18.13
2018-06-04T02:06:30.709Z,18.11
2018-06-04T02:07:28.011Z,18.11
2018-06-04T02:08:27.999Z,18.08
2018-06-04T02:09:27.987Z,18.02
2018-06-04T02:10:27.969Z,18.09
2018-06-04T02:11:28.004Z,18.05
2018-06-04T02:12:27.940Z,18.00
2018-06-04T02:13:27.926Z,18.02
2018-06-04T02:14:27.931Z,18.00
2018-06-04T02:15:27.898Z,17.95
2018-06-04T02:16:27.882Z,17.94
2018-06-04T02:17:27.870Z,17.93
2018-06-04T02:18:27.859Z,17.80
2018-06-04T02:19:27.847Z,17.72
2018-06-04T02:20:27.827Z,17.78
2018-06-04T02:21:27.814Z,17.78
2018-06-04T02:22:27.799Z,17.71
2018-06-04T02:23:27.784Z,17.78
2018-06-04T02:24:27.769Z,17.63
2018-06-04T02:25:27.756Z,17.60
2018-06-04T02:26:30.886Z,17.60
2018-06-04T02:27:27.727Z,17.72
2018-06-04T02:28:27.712Z,17.68
2018-06-04T02:29:27.700Z,17.66
2018-06-04T02:30:28.293Z,17.60
2018-06-04T02:31:27.670Z,17.60
2018-06-04T02:33:20.624Z,17.59
2018-06-04T02:34:16.777Z,17.60
2018-06-04T02:35:20.392Z,17.56
2018-06-04T02:36:18.170Z,17.56
2018-06-04T02:37:16.732Z,17.56
2018-06-04T02:38:16.715Z,17.47
2018-06-04T02:39:16.702Z,17.53
2018-06-04T02:40:16.688Z,17.50
2018-06-04T02:41:19.902Z,17.52
2018-06-04T02:42:17.266Z,17.47
2018-06-04T02:44:26.110Z,17.49
2018-06-04T02:45:26.168Z,17.52
2018-06-04T02:46:26.078Z,17.52
2018-06-04T02:47:26.265Z,17.52
2018-06-04T02:49:10.224Z,17.52
2018-06-04T02:50:10.382Z,17.59
2018-06-04T02:51:14.239Z,17.53
2018-06-04T03:00:21.439Z,17.63
2018-06-04T03:01:21.463Z,17.69
2018-06-04T03:02:21.407Z,17.60
2018-06-04T03:03:21.394Z,17.63
2018-06-04T03:05:20.582Z,17.63
2018-06-04T03:06:20.563Z,17.66
2018-06-04T03:07:23.774Z,17.68
2018-06-04T03:08:23.758Z,17.65
2018-06-04T03:09:20.516Z,17.76
2018-06-04T03:10:23.733Z,17.79
2018-06-04T03:11:20.486Z,17.75
2018-06-04T03:12:20.473Z,17.66
2018-06-04T03:13:20.456Z,17.75
2018-06-04T03:14:20.440Z,17.59
2018-06-04T03:16:19.930Z,17.57
2018-06-04T03:17:19.913Z,17.60
2018-06-04T03:18:19.906Z,17.59
2018-06-04T03:19:19.882Z,17.53
2018-06-04T03:20:19.866Z,17.53
2018-06-04T03:21:19.852Z,17.60
2018-06-04T03:22:19.839Z,17.60
2018-06-04T03:23:23.254Z,17.57
2018-06-04T03:25:27.747Z,17.59
2018-06-04T03:26:24.097Z,17.53
2018-06-04T03:27:24.084Z,17.52
2018-06-04T03:28:24.068Z,17.49
2018-06-04T03:29:24.054Z,17.47
2018-06-04T03:30:24.038Z,17.46
2018-06-04T03:31:24.025Z,17.50
2018-06-04T03:32:57.228Z,17.53
2018-06-04T03:33:23.995Z,17.50
2018-06-04T03:34:23.988Z,17.52
2018-06-04T03:35:23.964Z,17.50
2018-06-04T03:36:23.955Z,17.46
2018-06-04T03:37:23.937Z,17.53
2018-06-04T03:38:23.922Z,17.46
2018-06-04T03:39:23.907Z,17.47
2018-06-04T03:40:23.892Z,17.60
2018-06-04T03:41:23.887Z,17.63
2018-06-04T03:42:57.082Z,17.66
2018-06-04T03:43:23.851Z,17.68
2018-06-04T03:44:23.853Z,17.65
2018-06-04T03:45:23.829Z,17.69
2018-06-04T03:46:23.807Z,17.66
2018-06-04T03:47:23.793Z,17.68
2018-06-04T03:48:23.781Z,17.73
2018-06-04T03:49:23.765Z,17.60
2018-06-04T03:50:23.759Z,17.65
2018-06-04T03:51:23.735Z,17.65
2018-06-04T03:52:23.720Z,17.79
2018-06-04T03:53:23.707Z,17.75
2018-06-04T03:54:23.720Z,17.76
2018-06-04T03:55:23.678Z,17.87
2018-06-04T03:56:23.669Z,17.72
2018-06-04T03:57:23.650Z,17.73
2018-06-04T03:58:23.638Z,17.82
2018-06-04T03:59:23.623Z,17.86
2018-06-04T04:00:23.608Z,17.84
2018-06-04T04:01:23.595Z,17.82
2018-06-04T04:02:23.580Z,17.95
2018-06-04T04:03:23.567Z,18.00
2018-06-04T04:04:23.550Z,18.06
2018-06-04T04:05:23.537Z,18.00
2018-06-04T04:06:23.522Z,18.03
2018-06-04T04:07:23.509Z,18.09
2018-06-04T04:08:23.516Z,18.11
2018-06-04T04:09:23.530Z,18.12
2018-06-04T04:10:23.466Z,18.03
2018-06-04T04:11:23.455Z,18.06
2018-06-04T04:12:23.489Z,18.09
2018-06-04T04:13:23.425Z,18.19
2018-06-04T04:14:23.409Z,18.18
2018-06-04T04:15:23.400Z,18.12
2018-06-04T04:16:23.383Z,18.08
2018-06-04T04:17:23.370Z,18.15
2018-06-04T04:18:23.364Z,18.15
2018-06-04T04:19:23.393Z,18.13
2018-06-04T04:20:23.335Z,18.11
2018-06-04T04:21:23.314Z,18.09
2018-06-04T04:22:23.298Z,18.21
2018-06-04T04:23:23.293Z,18.18
2018-06-04T04:24:23.272Z,18.28
2018-06-04T04:25:23.264Z,18.27
2018-06-04T04:26:23.244Z,18.24
2018-06-04T04:27:23.230Z,18.26
2018-06-04T04:28:23.220Z,18.41
2018-06-04T04:29:23.205Z,18.46
2018-06-04T04:30:23.187Z,18.46
2018-06-04T04:31:23.174Z,18.51
2018-06-04T04:32:23.162Z,18.57
2018-06-04T04:33:23.146Z,18.46
2018-06-04T04:34:23.146Z,18.48
2018-06-04T04:35:23.121Z,18.51
2018-06-04T04:36:23.107Z,18.58
2018-06-04T04:37:23.094Z,18.55
2018-06-04T04:38:23.087Z,18.48
2018-06-04T04:39:23.065Z,18.58
2018-06-04T04:40:23.052Z,18.55
2018-06-04T04:41:23.040Z,18.57
2018-06-04T04:42:23.024Z,18.60
2018-06-04T04:43:23.010Z,18.51
2018-06-04T04:44:22.996Z,18.58
2018-06-04T04:45:22.990Z,18.48
2018-06-04T04:46:25.592Z,18.61
2018-06-04T04:47:22.956Z,18.71
2018-06-04T04:48:22.941Z,18.68
2018-06-04T04:49:22.928Z,18.58
2018-06-04T04:50:22.914Z,18.58
2018-06-04T04:51:22.901Z,18.58
2018-06-04T04:52:22.887Z,18.60
2018-06-04T04:53:22.875Z,18.52
2018-06-04T04:54:22.859Z,18.61
2018-06-04T04:55:22.846Z,18.61
2018-06-04T04:56:24.250Z,18.71
2018-06-04T04:57:22.819Z,18.81
2018-06-04T04:58:22.806Z,18.79
2018-06-04T05:00:53.112Z,18.88
2018-06-04T05:02:54.775Z,18.88
2018-06-04T05:03:34.536Z,18.83
2018-06-04T05:04:37.153Z,19.00
2018-06-04T05:05:34.509Z,18.96
2018-06-04T05:06:34.493Z,19.00
2018-06-04T05:07:38.113Z,19.08
2018-06-04T05:09:18.742Z,19.15
2018-06-04T05:10:18.728Z,18.96
2018-06-04T05:11:18.714Z,19.01
2018-06-04T05:12:19.019Z,19.00
2018-06-04T05:13:18.687Z,19.16
2018-06-04T05:14:18.674Z,19.08
2018-06-04T05:15:18.659Z,19.11
2018-06-04T05:17:02.971Z,19.22
2018-06-04T05:18:02.957Z,19.20
2018-06-04T05:19:02.946Z,19.27
2018-06-04T05:20:02.936Z,19.27
2018-06-04T05:21:02.932Z,19.27
2018-06-04T05:22:03.320Z,19.27
2018-06-04T05:23:02.892Z,19.34
2018-06-04T05:27:49.195Z,19.60
2018-06-04T05:28:49.181Z,19.63
2018-06-04T05:29:49.176Z,19.62
2018-06-04T05:30:52.182Z,19.78
2018-06-04T05:31:49.791Z,19.84
2018-06-04T05:33:22.344Z,19.87
2018-06-04T05:36:02.389Z,19.99
2018-06-04T05:37:03.239Z,20.33
2018-06-04T05:38:02.371Z,21.00
2018-06-04T05:39:02.361Z,21.84
2018-06-04T05:40:02.336Z,22.84
2018-06-04T05:41:35.539Z,23.40
2018-06-04T05:42:02.317Z,23.91
2018-06-04T05:43:02.295Z,24.50
2018-06-04T05:44:02.285Z,24.86
2018-06-04T05:45:02.275Z,25.24
2018-06-04T05:46:02.270Z,25.67
2018-06-04T05:47:02.253Z,25.78
2018-06-04T05:48:02.239Z,25.91
2018-06-04T05:49:02.234Z,26.18
2018-06-04T05:50:02.236Z,26.16
2018-06-04T05:51:02.210Z,26.45
2018-06-04T05:52:02.195Z,26.76
2018-06-04T05:53:02.185Z,26.92
2018-06-04T05:54:02.184Z,26.97
2018-06-04T05:55:02.166Z,27.38
2018-06-04T05:56:02.167Z,27.75
2018-06-04T05:57:02.151Z,27.94
2018-06-04T05:58:02.151Z,28.12
2018-06-04T05:59:02.133Z,28.04
2018-06-04T06:00:02.125Z,28.22
2018-06-04T06:01:02.135Z,28.22
2018-06-04T06:02:02.111Z,28.37
2018-06-04T06:03:02.111Z,28.40
2018-06-04T06:04:02.097Z,28.35
2018-06-04T06:05:02.092Z,28.43
2018-06-04T06:06:02.089Z,28.59
2018-06-04T06:07:02.078Z,28.65
2018-06-04T06:08:02.236Z,28.97
2018-06-04T06:09:02.066Z,29.16
2018-06-04T06:10:02.060Z,29.40
2018-06-04T06:11:02.055Z,29.05
2018-06-04T06:12:02.051Z,28.87
2018-06-04T06:13:02.051Z,28.83
2018-06-04T06:14:02.042Z,29.03
2018-06-04T06:15:02.044Z,29.13
2018-06-04T06:16:02.041Z,29.12
2018-06-04T06:17:02.034Z,29.22
2018-06-04T06:18:02.035Z,29.40
2018-06-04T06:19:02.023Z,29.31
2018-06-04T06:20:02.020Z,29.55
2018-06-04T06:21:02.015Z,29.61
2018-06-04T06:22:02.017Z,29.84
2018-06-04T06:23:02.009Z,29.94
2018-06-04T06:24:02.005Z,30.17
2018-06-04T06:25:02.019Z,30.26
2018-06-04T06:26:02.001Z,30.52
2018-06-04T06:27:02.009Z,30.44
2018-06-04T06:28:01.997Z,30.46
2018-06-04T06:29:01.994Z,30.78
2018-06-04T06:30:01.992Z,30.51
2018-06-04T06:31:01.988Z,30.36
2018-06-04T06:32:01.994Z,30.52
2018-06-04T06:33:01.991Z,30.61
2018-06-04T06:34:01.985Z,30.73
2018-06-04T06:35:01.983Z,30.96
2018-06-04T06:36:01.988Z,30.63
2018-06-04T06:37:01.980Z,30.83
2018-06-04T06:38:01.987Z,30.58
2018-06-04T06:39:01.980Z,30.16
2018-06-04T06:40:01.980Z,30.16
2018-06-04T06:41:01.978Z,30.02
2018-06-04T06:42:01.978Z,30.32
2018-06-04T06:43:01.987Z,30.23
2018-06-04T06:44:01.981Z,30.43
2018-06-04T06:45:01.980Z,30.51
2018-06-04T06:46:01.981Z,30.69
2018-06-04T06:47:02.007Z,30.76
2018-06-04T06:48:01.990Z,30.96
2018-06-04T06:49:01.976Z,30.54
2018-06-04T06:50:01.991Z,30.83
2018-06-04T06:51:01.979Z,30.62
2018-06-04T06:52:01.979Z,30.43
2018-06-04T06:53:01.986Z,30.44
2018-06-04T06:54:01.980Z,30.43
2018-06-04T06:55:01.987Z,30.71
2018-06-04T06:56:01.983Z,30.32
2018-06-04T06:57:01.982Z,29.68
2018-06-04T06:58:01.982Z,29.57
2018-06-04T06:59:02.083Z,29.30
2018-06-04T07:00:01.983Z,29.22
2018-06-04T07:01:01.988Z,29.55
2018-06-04T07:02:02.035Z,29.77
2018-06-04T07:03:01.991Z,29.50
2018-06-04T07:04:01.997Z,29.57
2018-06-04T07:05:01.991Z,29.73
2018-06-04T07:06:01.995Z,29.95
2018-06-04T07:07:01.993Z,29.49
2018-06-04T07:08:02.000Z,29.86
2018-06-04T07:09:01.997Z,30.14
2018-06-04T07:10:01.997Z,30.23
2018-06-04T07:11:02.001Z,30.48
2018-06-04T07:12:02.000Z,30.33
2018-06-04T07:13:02.004Z,30.74
2018-06-04T07:14:02.002Z,30.08
2018-06-04T07:15:02.006Z,29.98
2018-06-04T07:16:02.006Z,30.05
2018-06-04T07:17:02.010Z,30.38
2018-06-04T07:18:02.016Z,30.29
2018-06-04T07:19:02.018Z,29.73
2018-06-04T07:20:02.014Z,28.65
2018-06-04T07:21:02.014Z,28.28
2018-06-04T07:22:02.020Z,28.27
2018-06-04T07:23:02.016Z,27.98
2018-06-04T07:24:02.018Z,27.57
2018-06-04T07:25:02.074Z,27.48
2018-06-04T07:26:02.025Z,27.94
2018-06-04T07:27:02.032Z,28.10
2018-06-04T07:28:02.031Z,27.35
2018-06-04T07:29:02.032Z,26.79
2018-06-04T07:30:02.032Z,26.93
2018-06-04T07:31:02.033Z,26.86
2018-06-04T07:32:02.036Z,26.96
2018-06-04T07:33:02.037Z,27.10
2018-06-04T07:34:02.041Z,26.96
2018-06-04T07:35:02.038Z,26.79
2018-06-04T07:36:02.041Z,26.49
2018-06-04T07:37:02.063Z,26.66
2018-06-04T07:38:02.048Z,26.96
2018-06-04T07:39:02.041Z,27.18
2018-06-04T07:40:02.050Z,27.16
2018-06-04T07:41:02.102Z,27.10
2018-06-04T07:42:02.045Z,26.86
2018-06-04T07:43:02.053Z,26.91
2018-06-04T07:44:02.056Z,26.34
2018-06-04T07:45:02.040Z,26.42
2018-06-04T07:46:02.042Z,26.42
2018-06-04T07:47:02.038Z,26.70
2018-06-04T07:48:02.038Z,26.70
2018-06-04T07:49:02.033Z,26.82
2018-06-04T07:50:02.038Z,26.97
2018-06-04T07:51:02.031Z,27.03
2018-06-04T07:52:02.034Z,27.30
2018-06-04T07:53:02.031Z,27.26
2018-06-04T07:54:02.024Z,27.20
2018-06-04T07:55:02.022Z,27.37
2018-06-04T07:56:02.016Z,27.41
2018-06-04T07:57:02.015Z,27.41
2018-06-04T07:58:02.011Z,27.30
2018-06-04T07:59:02.015Z,27.28
2018-06-04T08:00:02.004Z,27.37
2018-06-04T08:01:02.003Z,27.34
2018-06-04T08:02:01.996Z,26.81
2018-06-04T08:03:01.992Z,26.70
2018-06-04T08:04:01.989Z,26.86
2018-06-04T08:05:01.990Z,26.61
2018-06-04T08:06:01.989Z,26.60
2018-06-04T08:07:01.977Z,26.68
2018-06-04T08:08:01.972Z,26.67
2018-06-04T08:09:01.970Z,26.63
2018-06-04T08:10:02.037Z,26.36
2018-06-04T08:11:01.959Z,26.31
2018-06-04T08:12:01.955Z,26.51
2018-06-04T08:13:01.951Z,26.66
2018-06-04T08:14:01.948Z,26.48
2018-06-04T08:15:01.943Z,26.15
2018-06-04T08:16:01.937Z,25.89
2018-06-04T08:17:01.933Z,25.78
2018-06-04T08:18:01.979Z,26.04
2018-06-04T08:19:01.932Z,26.11
2018-06-04T08:20:01.922Z,25.95
2018-06-04T08:21:01.916Z,26.01
2018-06-04T08:22:01.919Z,25.77
2018-06-04T08:23:01.905Z,26.06
2018-06-04T08:24:01.939Z,25.89
2018-06-04T08:25:01.898Z,25.73
2018-06-04T08:26:01.896Z,25.95
2018-06-04T08:27:01.886Z,26.04
2018-06-04T08:28:01.880Z,26.23
2018-06-04T08:29:01.873Z,26.24
2018-06-04T08:30:01.870Z,26.18
2018-06-04T08:31:01.866Z,26.18
2018-06-04T08:32:01.860Z,26.18
2018-06-04T08:33:01.859Z,26.16
2018-06-04T08:34:01.850Z,26.39
2018-06-04T08:35:01.840Z,26.44
2018-06-04T08:36:01.836Z,26.63
2018-06-04T08:37:01.829Z,26.60
2018-06-04T08:38:01.832Z,26.70
2018-06-04T08:39:01.818Z,26.78
2018-06-04T08:40:01.819Z,26.93
2018-06-04T08:41:01.807Z,27.13
2018-06-04T08:42:01.799Z,27.22
2018-06-04T08:43:01.812Z,26.82
2018-06-04T08:44:01.790Z,26.68
2018-06-04T08:45:01.782Z,26.91
2018-06-04T08:46:01.778Z,26.93
2018-06-04T08:47:01.777Z,26.83
2018-06-04T08:48:01.768Z,26.96
2018-06-04T08:49:01.771Z,27.43
2018-06-04T08:50:01.765Z,27.52
2018-06-04T08:51:01.794Z,27.38
2018-06-04T08:52:01.740Z,27.03
2018-06-04T08:53:01.743Z,26.66
2018-06-04T08:54:01.730Z,26.64
2018-06-04T08:55:01.739Z,26.59
2018-06-04T08:56:01.720Z,27.19
2018-06-04T08:57:01.715Z,27.48
2018-06-04T08:58:01.706Z,27.50
2018-06-04T08:59:01.849Z,27.78
2018-06-04T09:00:01.698Z,27.86
2018-06-04T09:01:01.690Z,27.83
2018-06-04T09:02:01.736Z,28.18
2018-06-04T09:03:01.677Z,28.31
2018-06-04T09:04:01.671Z,28.06
2018-06-04T09:05:01.669Z,27.90
2018-06-04T09:06:01.661Z,28.10
2018-06-04T09:07:01.658Z,28.22
2018-06-04T09:08:01.653Z,27.82
2018-06-04T09:09:01.649Z,27.66
2018-06-04T09:10:01.644Z,27.28
2018-06-04T09:11:01.639Z,27.07
2018-06-04T09:12:01.636Z,27.10
2018-06-04T09:13:01.646Z,27.38
2018-06-04T09:14:01.631Z,27.33
2018-06-04T09:15:01.626Z,27.37
2018-06-04T09:16:01.618Z,27.50
2018-06-04T09:17:01.615Z,27.82
2018-06-04T09:18:01.615Z,28.01
2018-06-04T09:19:01.609Z,28.30
2018-06-04T09:20:01.605Z,28.28
2018-06-04T09:21:01.602Z,28.47
2018-06-04T09:22:01.666Z,28.47
2018-06-04T09:23:01.597Z,28.35
2018-06-04T09:24:01.602Z,28.52
2018-06-04T09:25:01.596Z,28.34
2018-06-04T09:26:01.599Z,28.33
2018-06-04T09:27:01.588Z,27.95
2018-06-04T09:28:01.603Z,27.82
2018-06-04T09:29:01.585Z,27.81
2018-06-04T09:30:01.582Z,27.85
2018-06-04T09:31:01.581Z,27.52
2018-06-04T09:32:01.583Z,27.58
2018-06-04T09:33:01.572Z,27.72
2018-06-04T09:34:01.570Z,27.82
2018-06-04T09:35:01.567Z,27.91
2018-06-04T09:36:01.563Z,28.06
2018-06-04T09:37:01.561Z,28.34
2018-06-04T09:38:01.557Z,28.22
2018-06-04T09:39:01.556Z,27.82
2018-06-04T09:40:01.564Z,28.22
2018-06-04T09:41:01.550Z,28.35
2018-06-04T09:42:01.548Z,28.46
2018-06-04T09:43:01.546Z,28.74
2018-06-04T09:44:01.542Z,29.00
2018-06-04T09:45:01.545Z,29.25
2018-06-04T09:46:01.543Z,29.55
2018-06-04T09:47:01.545Z,29.73
2018-06-04T09:48:01.543Z,29.86
2018-06-04T09:49:01.541Z,29.86
2018-06-04T09:50:01.531Z,29.57
2018-06-04T09:51:01.529Z,29.16
2018-06-04T09:52:01.526Z,28.75
2018-06-04T09:53:01.524Z,28.60
2018-06-04T09:54:01.580Z,28.74
2018-06-04T09:55:01.520Z,28.71
2018-06-04T09:56:01.518Z,28.55
2018-06-04T09:57:01.522Z,28.31
2018-06-04T09:58:01.515Z,28.23
2018-06-04T09:59:01.508Z,28.18
2018-06-04T10:00:01.520Z,27.95
2018-06-04T10:01:01.507Z,27.71
2018-06-04T10:02:01.503Z,27.64
2018-06-04T10:03:01.521Z,27.61
2018-06-04T10:04:01.494Z,27.53
2018-06-04T10:05:01.490Z,27.52
2018-06-04T10:06:01.490Z,27.55
2018-06-04T10:07:01.481Z,27.23
2018-06-04T10:08:01.476Z,27.19
2018-06-04T10:09:01.479Z,27.35
2018-06-04T10:10:01.470Z,27.41
2018-06-04T10:11:01.463Z,27.23
2018-06-04T10:12:01.460Z,27.11
2018-06-04T10:13:01.464Z,27.08
2018-06-04T10:14:01.453Z,27.01
2018-06-04T10:15:01.447Z,26.89
2018-06-04T10:16:01.448Z,26.60
2018-06-04T10:17:01.438Z,26.41
2018-06-04T10:18:01.432Z,26.41
2018-06-04T10:19:01.433Z,26.79
2018-06-04T10:20:01.429Z,27.41
2018-06-04T10:21:01.416Z,27.58
2018-06-04T10:22:01.411Z,28.38
2018-06-04T10:23:01.405Z,28.86
2018-06-04T10:24:01.408Z,29.40
2018-06-04T10:25:01.397Z,29.89
2018-06-04T10:26:01.399Z,29.96
2018-06-04T10:27:01.389Z,29.55
2018-06-04T10:28:01.395Z,29.37
2018-06-04T10:29:01.392Z,28.97
2018-06-04T10:30:01.381Z,28.65
2018-06-04T10:31:01.376Z,28.30
2018-06-04T10:32:01.375Z,28.16
2018-06-04T10:33:01.374Z,27.67
2018-06-04T10:34:01.369Z,27.64
2018-06-04T10:35:01.371Z,27.63
2018-06-04T10:36:01.374Z,27.52
2018-06-04T10:37:01.366Z,27.58
2018-06-04T10:38:01.364Z,27.61
2018-06-04T10:39:01.353Z,28.04
2018-06-04T10:40:01.349Z,28.03
2018-06-04T10:41:01.346Z,28.75
2018-06-04T10:42:01.444Z,29.25
2018-06-04T10:43:01.340Z,29.67
2018-06-04T10:44:01.337Z,30.03
2018-06-04T10:45:01.334Z,30.35
2018-06-04T10:46:01.333Z,30.58
2018-06-04T10:47:01.337Z,30.73
2018-06-04T10:48:01.337Z,30.80
2018-06-04T10:49:01.327Z,30.27
2018-06-04T10:50:01.329Z,29.37
2018-06-04T10:51:01.331Z,29.00
2018-06-04T10:52:01.325Z,29.22
2018-06-04T10:53:01.332Z,29.27
2018-06-04T10:54:01.323Z,29.69
2018-06-04T10:55:01.322Z,30.10
2018-06-04T10:56:01.322Z,30.61
2018-06-04T10:57:01.326Z,30.89
2018-06-04T10:58:01.323Z,30.78
2018-06-04T10:59:01.324Z,30.83
2018-06-04T11:00:01.323Z,30.16
2018-06-04T11:01:01.336Z,30.20
2018-06-04T11:02:01.327Z,30.40
2018-06-04T11:03:01.338Z,30.78
2018-06-04T11:04:01.331Z,30.73
2018-06-04T11:05:01.330Z,29.99
2018-06-04T11:06:01.331Z,29.43
2018-06-04T11:07:01.340Z,29.57
2018-06-04T11:08:01.341Z,29.65
2018-06-04T11:09:01.335Z,29.94
2018-06-04T11:10:01.336Z,29.31
2018-06-04T11:11:01.346Z,29.03
2018-06-04T11:12:01.338Z,29.55
2018-06-04T11:13:01.350Z,29.73
2018-06-04T11:14:01.346Z,29.99
2018-06-04T11:15:01.341Z,29.31
2018-06-04T11:16:01.344Z,29.15
2018-06-04T11:17:01.345Z,28.96
2018-06-04T11:18:01.346Z,29.40
2018-06-04T11:19:01.354Z,29.98
2018-06-04T11:20:01.356Z,30.39
2018-06-04T11:21:01.359Z,30.46
2018-06-04T11:22:01.352Z,30.61
2018-06-04T11:23:01.406Z,30.10
2018-06-04T11:24:01.356Z,30.03
2018-06-04T11:25:01.362Z,30.02
2018-06-04T11:26:01.395Z,29.25
2018-06-04T11:27:01.362Z,29.32
2018-06-04T11:28:01.363Z,29.46
2018-06-04T11:29:01.369Z,29.55
2018-06-04T11:30:01.371Z,29.40
2018-06-04T11:31:01.373Z,29.25
2018-06-04T11:32:01.375Z,28.82
2018-06-04T11:33:01.381Z,28.64
2018-06-04T11:34:01.379Z,28.72
2018-06-04T11:35:01.385Z,29.22
2018-06-04T11:36:01.380Z,28.93
2018-06-04T11:37:01.378Z,28.62
2018-06-04T11:38:01.386Z,28.40
2018-06-04T11:39:01.398Z,28.28
2018-06-04T11:40:01.380Z,28.28
2018-06-04T11:41:01.380Z,28.60
2018-06-04T11:42:01.382Z,28.33
2018-06-04T11:43:01.384Z,27.93
2018-06-04T11:44:01.381Z,27.82
2018-06-04T11:45:01.380Z,27.93
2018-06-04T11:46:01.382Z,27.81
2018-06-04T11:47:01.379Z,27.82
2018-06-04T11:48:01.377Z,27.82
2018-06-04T11:49:01.376Z,27.76
2018-06-04T11:50:01.375Z,27.88
2018-06-04T11:51:01.378Z,28.00
2018-06-04T11:52:01.370Z,27.83
2018-06-04T11:53:01.373Z,27.94
2018-06-04T11:54:01.368Z,27.98
2018-06-04T11:55:01.364Z,28.03
2018-06-04T11:56:01.363Z,28.13
2018-06-04T11:57:01.359Z,28.08
2018-06-04T11:58:01.356Z,27.95
2018-06-04T11:59:01.359Z,27.66
2018-06-04T12:00:01.355Z,27.79
2018-06-04T12:01:01.346Z,27.82
2018-06-04T12:02:01.344Z,27.94
2018-06-04T12:03:01.340Z,28.10
2018-06-04T12:04:01.337Z,27.97
2018-06-04T12:05:01.342Z,28.15
2018-06-04T12:06:01.338Z,28.09
2018-06-04T12:07:01.333Z,28.03
2018-06-04T12:08:01.334Z,27.95
2018-06-04T12:09:01.318Z,27.66
2018-06-04T12:10:01.318Z,27.72
2018-06-04T12:11:01.315Z,27.75
2018-06-04T12:12:01.305Z,27.73
2018-06-04T12:13:01.300Z,27.79
2018-06-04T12:14:01.305Z,27.88
2018-06-04T12:15:01.292Z,27.91
2018-06-04T12:16:01.286Z,27.79
2018-06-04T12:17:01.282Z,27.81
2018-06-04T12:18:01.277Z,27.82
2018-06-04T12:19:01.271Z,27.75
2018-06-04T12:20:01.269Z,27.72
2018-06-04T12:21:01.263Z,27.71
2018-06-04T12:22:01.263Z,27.66
2018-06-04T12:23:01.860Z,27.33
2018-06-04T12:24:01.252Z,27.11
2018-06-04T12:25:01.241Z,27.23
2018-06-04T12:26:01.241Z,27.30
2018-06-04T12:27:01.235Z,26.93
2018-06-04T12:28:01.233Z,26.61
2018-06-04T12:29:01.224Z,26.64
2018-06-04T12:30:01.222Z,26.82
2018-06-04T12:31:01.212Z,26.82
2018-06-04T12:32:01.207Z,26.88
2018-06-04T12:33:01.212Z,26.93
2018-06-04T12:34:01.191Z,26.98
2018-06-04T12:35:01.185Z,26.91
2018-06-04T12:36:01.179Z,27.08
2018-06-04T12:37:01.182Z,27.05
2018-06-04T12:38:01.169Z,27.23
2018-06-04T12:39:01.160Z,27.28
2018-06-04T12:40:01.158Z,27.10
2018-06-04T12:41:01.151Z,27.11
2018-06-04T12:42:01.144Z,27.20
2018-06-04T12:43:01.135Z,27.26
2018-06-04T12:44:01.141Z,27.29
2018-06-04T12:45:01.133Z,27.20
2018-06-04T12:46:01.125Z,27.25
2018-06-04T12:47:01.111Z,27.23
2018-06-04T12:48:01.142Z,27.25
2018-06-04T12:49:01.100Z,27.13
2018-06-04T12:50:01.097Z,26.85
2018-06-04T12:51:01.092Z,26.96
2018-06-04T12:52:01.081Z,26.83
2018-06-04T12:53:01.084Z,26.76
2018-06-04T12:54:01.068Z,26.67
2018-06-04T12:55:01.063Z,26.61
2018-06-04T12:56:01.055Z,26.73
2018-06-04T12:57:01.058Z,26.53
2018-06-04T12:58:01.053Z,26.36
2018-06-04T12:59:01.040Z,26.56
2018-06-04T13:00:01.035Z,26.56
2018-06-04T13:01:01.023Z,26.71
2018-06-04T13:02:01.023Z,26.67
2018-06-04T13:03:01.007Z,26.63
2018-06-04T13:04:01.015Z,26.63
2018-06-04T13:05:00.997Z,26.63
2018-06-04T13:06:00.990Z,26.76
2018-06-04T13:07:00.981Z,26.83
2018-06-04T13:08:00.985Z,26.98
2018-06-04T13:09:00.972Z,27.03
2018-06-04T13:10:00.962Z,27.08
2018-06-04T13:11:00.954Z,27.34
2018-06-04T13:12:00.948Z,27.58
2018-06-04T13:13:00.953Z,27.61
2018-06-04T13:14:00.933Z,27.52
2018-06-04T13:15:00.924Z,27.52
2018-06-04T13:16:00.917Z,27.55
2018-06-04T13:17:00.911Z,27.57